createdAt,value
2018-03-17T00:00:31.461Z,61.00
2018-03-17T00:03:00.522Z,61.50
2018-03-17T00:05:28.720Z,61.50
2018-03-17T00:07:56.998Z,61.60
2018-03-17T00:10:25.211Z,61.30
2018-03-17T00:12:53.441Z,61.50
2018-03-17T00:15:21.681Z,61.40
2018-03-17T00:17:49.976Z,61.00
2018-03-17T00:20:18.240Z,61.60
2018-03-17T00:22:46.454Z,61.00
2018-03-17T00:25:15.498Z,61.80
2018-03-17T00:27:43.755Z,61.70
2018-03-17T00:30:12.750Z,63.10
2018-03-17T00:32:41.061Z,62.90
2018-03-17T00:35:09.325Z,62.40
2018-03-17T00:37:37.536Z,62.40
2018-03-17T00:40:05.836Z,61.90
2018-03-17T00:42:34.858Z,62.20
2018-03-17T00:45:03.081Z,62.10
2018-03-17T00:47:31.296Z,61.80
2018-03-17T00:49:59.949Z,61.50
2018-03-17T00:52:28.173Z,61.20
2018-03-17T00:54:56.443Z,61.40
2018-03-17T00:57:24.680Z,61.50
2018-03-17T00:59:52.901Z,61.20
2018-03-17T01:02:21.150Z,61.70
2018-03-17T01:04:50.140Z,61.30
2018-03-17T01:07:19.184Z,62.00
2018-03-17T01:09:47.424Z,61.90
2018-03-17T01:12:15.676Z,61.00
2018-03-17T01:14:43.881Z,61.00
2018-03-17T01:17:12.151Z,61.10
2018-03-17T01:19:41.118Z,60.40
2018-03-17T01:22:10.489Z,60.60
2018-03-17T01:24:38.706Z,60.30
2018-03-17T01:27:07.729Z,60.40
2018-03-17T01:29:36.004Z,60.40
2018-03-17T01:32:04.297Z,60.30
2018-03-17T01:34:32.526Z,60.10
2018-03-17T01:37:01.504Z,60.30
2018-03-17T01:39:29.739Z,60.10
2018-03-17T01:41:57.949Z,60.30
2018-03-17T01:44:26.173Z,60.10
2018-03-17T01:46:54.444Z,60.40
2018-03-17T01:49:22.705Z,60.20
2018-03-17T01:51:50.930Z,60.10
2018-03-17T01:54:34.277Z,60.00
2018-03-17T01:57:02.498Z,60.10
2018-03-17T01:59:30.715Z,60.40
2018-03-17T02:01:58.935Z,60.70
2018-03-17T02:04:27.927Z,60.50
2018-03-17T02:06:56.910Z,60.50
2018-03-17T02:09:25.884Z,60.30
2018-03-17T02:11:54.110Z,60.70
2018-03-17T02:14:22.315Z,60.90
2018-03-17T02:16:50.587Z,61.20
2018-03-17T02:19:18.825Z,60.80
2018-03-17T02:21:48.194Z,61.10
2018-03-17T02:24:16.427Z,61.10
2018-03-17T02:26:44.656Z,61.30
2018-03-17T02:29:12.925Z,61.20
2018-03-17T02:31:41.157Z,61.00
2018-03-17T02:34:09.432Z,60.90
2018-03-17T02:36:37.670Z,60.90
2018-03-17T02:39:05.945Z,60.70
2018-03-17T02:41:34.153Z,61.80
2018-03-17T02:44:02.397Z,60.90
2018-03-17T02:46:31.429Z,61.70
2018-03-17T02:48:59.668Z,61.00
2018-03-17T02:51:27.917Z,60.90
2018-03-17T02:53:56.195Z,60.70
2018-03-17T02:56:24.384Z,60.70
2018-03-17T02:58:52.703Z,60.90
2018-03-17T03:01:21.724Z,60.50
2018-03-17T03:03:49.937Z,60.40
2018-03-17T03:06:18.172Z,60.30
2018-03-17T03:08:46.434Z,61.00
2018-03-17T03:11:14.655Z,60.90
2018-03-17T03:13:42.869Z,60.50
2018-03-17T03:16:11.100Z,60.90
2018-03-17T03:18:39.365Z,60.90
2018-03-17T03:21:07.675Z,60.80
2018-03-17T03:23:35.938Z,60.90
2018-03-17T03:26:04.122Z,61.50
2018-03-17T03:28:32.399Z,61.30
2018-03-17T03:31:00.663Z,61.10
2018-03-17T03:33:28.914Z,60.90
2018-03-17T03:35:57.159Z,61.00
2018-03-17T03:38:25.375Z,60.70
2018-03-17T03:40:53.636Z,60.50
2018-03-17T03:43:21.853Z,60.60
2018-03-17T03:45:50.824Z,60.80
2018-03-17T03:48:19.055Z,60.80
2018-03-17T03:50:47.269Z,60.70
2018-03-17T03:53:15.506Z,60.60
2018-03-17T03:55:43.774Z,60.60
2018-03-17T03:58:12.010Z,60.50
2018-03-17T04:00:40.239Z,60.80
2018-03-17T04:03:08.454Z,60.00
2018-03-17T04:05:36.679Z,60.30
2018-03-17T04:08:04.939Z,59.90
2018-03-17T04:10:33.964Z,59.90
2018-03-17T04:13:02.290Z,59.80
2018-03-17T04:15:30.525Z,60.30
2018-03-17T04:17:58.732Z,60.60
2018-03-17T04:20:27.264Z,60.90
2018-03-17T04:22:55.534Z,60.70
2018-03-17T04:25:24.537Z,60.20
2018-03-17T04:27:52.769Z,60.20
2018-03-17T04:30:21.012Z,60.90
2018-03-17T04:32:49.277Z,60.50
2018-03-17T04:35:17.533Z,60.40
2018-03-17T04:37:45.745Z,60.20
2018-03-17T04:40:14.007Z,60.30
2018-03-17T04:42:42.241Z,60.00
2018-03-17T04:45:11.284Z,60.50
2018-03-17T04:47:39.884Z,60.40
2018-03-17T04:50:08.125Z,59.90
2018-03-17T04:52:36.375Z,60.20
2018-03-17T04:55:05.374Z,59.90
2018-03-17T04:57:34.332Z,59.60
2018-03-17T05:00:02.617Z,59.60
2018-03-17T05:02:30.804Z,59.40
2018-03-17T05:04:59.821Z,59.50
2018-03-17T05:07:28.080Z,59.50
2018-03-17T05:09:57.128Z,59.40
2018-03-17T05:12:25.326Z,59.40
2018-03-17T05:14:53.558Z,59.40
2018-03-17T05:17:21.805Z,59.60
2018-03-17T05:19:50.843Z,59.60
2018-03-17T05:22:19.110Z,59.50
2018-03-17T05:24:47.350Z,59.60
2018-03-17T05:27:16.415Z,59.60
2018-03-17T05:29:44.635Z,59.40
2018-03-17T05:32:12.863Z,59.60
2018-03-17T05:34:41.111Z,59.70
2018-03-17T05:37:09.369Z,59.50
2018-03-17T05:39:37.614Z,59.60
2018-03-17T05:42:05.834Z,59.60
2018-03-17T05:44:34.052Z,59.60
2018-03-17T05:47:02.253Z,59.50
2018-03-17T05:49:31.238Z,59.30
2018-03-17T05:52:00.258Z,59.50
2018-03-17T05:54:28.556Z,59.50
2018-03-17T05:56:56.738Z,59.30
2018-03-17T05:59:25.015Z,59.50
2018-03-17T06:01:53.288Z,59.40
2018-03-17T06:04:21.587Z,59.50
2018-03-17T06:06:49.780Z,59.70
2018-03-17T06:09:18.044Z,59.40
2018-03-17T06:11:46.286Z,59.40
2018-03-17T06:14:14.538Z,59.30
2018-03-17T06:16:42.791Z,59.30
2018-03-17T06:19:11.010Z,59.50
2018-03-17T06:21:39.259Z,59.50
2018-03-17T06:24:08.239Z,59.60
2018-03-17T06:26:37.302Z,59.90
2018-03-17T06:29:05.521Z,59.80
2018-03-17T06:31:33.798Z,59.60
2018-03-17T06:34:02.944Z,59.80
2018-03-17T06:36:31.205Z,59.80
2018-03-17T06:38:59.415Z,59.60
2018-03-17T06:41:27.719Z,59.50
2018-03-17T06:43:56.809Z,59.70
2018-03-17T06:46:25.111Z,59.70
2018-03-17T06:48:53.408Z,60.10
2018-03-17T06:51:21.652Z,59.50
2018-03-17T06:53:49.962Z,59.50
2018-03-17T06:56:18.260Z,59.40
2018-03-17T06:58:46.723Z,59.30
2018-03-17T07:01:14.965Z,59.30
2018-03-17T07:03:43.997Z,59.20
2018-03-17T07:06:12.262Z,59.20
2018-03-17T07:08:40.507Z,59.20
2018-03-17T07:11:09.536Z,59.20
2018-03-17T07:13:37.807Z,59.20
2018-03-17T07:16:06.095Z,59.20
2018-03-17T07:18:34.386Z,58.90
2018-03-17T07:21:02.632Z,58.90
2018-03-17T07:23:30.889Z,58.90
2018-03-17T07:25:59.904Z,59.10
2018-03-17T07:28:28.181Z,59.00
2018-03-17T07:30:56.477Z,58.80
2018-03-17T07:33:24.764Z,58.70
2018-03-17T07:35:53.054Z,58.90
2018-03-17T07:38:21.337Z,59.20
2018-03-17T07:40:49.599Z,59.60
2018-03-17T07:43:17.914Z,59.50
2018-03-17T07:45:46.955Z,59.10
2018-03-17T07:48:15.198Z,59.00
2018-03-17T07:50:43.458Z,59.00
2018-03-17T07:53:11.731Z,58.80
2018-03-17T07:55:40.799Z,58.90
2018-03-17T07:58:09.067Z,58.80
2018-03-17T08:00:37.361Z,58.70
2018-03-17T08:03:05.622Z,58.70
2018-03-17T08:05:33.923Z,58.50
2018-03-17T08:08:02.235Z,58.50
2018-03-17T08:10:30.558Z,58.40
2018-03-17T08:12:58.840Z,58.30
2018-03-17T08:15:27.089Z,58.40
2018-03-17T08:17:55.343Z,58.30
2018-03-17T08:20:23.609Z,58.00
2018-03-17T08:22:51.884Z,57.80
2018-03-17T08:25:20.891Z,58.20
2018-03-17T08:27:49.181Z,58.20
2018-03-17T08:30:17.447Z,58.20
2018-03-17T08:32:45.711Z,58.00
2018-03-17T08:35:13.984Z,58.10
2018-03-17T08:37:43.045Z,58.10
2018-03-17T08:40:11.343Z,58.10
2018-03-17T08:42:40.416Z,58.00
2018-03-17T08:45:08.692Z,58.00
2018-03-17T08:47:36.930Z,58.00
2018-03-17T08:50:06.001Z,58.20
2018-03-17T08:52:34.308Z,58.10
2018-03-17T08:55:02.607Z,58.10
2018-03-17T08:57:30.860Z,58.20
2018-03-17T08:59:59.130Z,57.80
2018-03-17T09:02:27.432Z,57.80
2018-03-17T09:04:55.746Z,57.80
2018-03-17T09:07:24.815Z,57.90
2018-03-17T09:09:53.085Z,57.90
2018-03-17T09:12:21.341Z,57.70
2018-03-17T09:14:49.613Z,57.70
2018-03-17T09:17:17.958Z,57.70
2018-03-17T09:19:47.052Z,57.80
2018-03-17T09:22:21.213Z,57.50
2018-03-17T09:24:50.293Z,58.10
2018-03-17T09:27:18.702Z,57.50
2018-03-17T09:29:47.057Z,57.60
2018-03-17T09:32:15.383Z,57.70
2018-03-17T09:34:43.714Z,57.70
2018-03-17T09:37:12.737Z,57.60
2018-03-17T09:39:41.853Z,57.70
2018-03-17T09:42:10.136Z,58.30
2018-03-17T09:44:38.415Z,57.80
2018-03-17T09:47:07.502Z,57.40
2018-03-17T09:49:35.857Z,57.40
2018-03-17T09:52:04.172Z,57.40
2018-03-17T09:54:33.205Z,57.30
2018-03-17T09:57:01.518Z,57.30
2018-03-17T09:59:29.869Z,57.00
2018-03-17T10:01:58.226Z,57.30
2018-03-17T10:04:26.492Z,57.40
2018-03-17T10:06:54.804Z,57.30
2018-03-17T10:09:23.232Z,57.10
2018-03-17T10:11:52.285Z,57.40
2018-03-17T10:14:20.602Z,57.40
2018-03-17T10:16:49.690Z,57.60
2018-03-17T10:19:18.015Z,57.50
2018-03-17T10:21:46.296Z,57.50
2018-03-17T10:24:14.608Z,57.10
2018-03-17T10:26:42.926Z,57.10
2018-03-17T10:29:11.193Z,57.20
2018-03-17T10:31:40.256Z,57.00
2018-03-17T10:34:08.546Z,57.00
2018-03-17T10:36:37.690Z,56.30
2018-03-17T10:39:06.023Z,56.20
2018-03-17T10:41:34.325Z,56.20
2018-03-17T10:44:02.607Z,56.50
2018-03-17T10:46:30.930Z,56.60
2018-03-17T10:48:59.253Z,56.30
2018-03-17T10:51:28.314Z,56.10
2018-03-17T10:53:56.639Z,56.10
2018-03-17T10:56:24.947Z,56.20
2018-03-17T10:58:53.297Z,56.20
2018-03-17T11:01:21.579Z,56.50
2018-03-17T11:03:49.845Z,56.50
2018-03-17T11:06:18.154Z,56.80
2018-03-17T11:08:46.402Z,56.30
2018-03-17T11:11:14.733Z,56.20
2018-03-17T11:13:43.021Z,56.30
2018-03-17T11:16:11.278Z,56.40
2018-03-17T11:18:39.574Z,57.00
2018-03-17T11:21:07.912Z,56.50
2018-03-17T11:23:37.851Z,56.40
2018-03-17T11:26:06.156Z,56.40
2018-03-17T11:28:34.469Z,56.20
2018-03-17T11:31:02.756Z,56.10
2018-03-17T11:33:31.070Z,56.10
2018-03-17T11:35:59.356Z,55.90
2018-03-17T11:38:28.432Z,55.70
2018-03-17T11:40:56.747Z,55.60
2018-03-17T11:43:25.045Z,55.70
2018-03-17T11:45:53.345Z,55.50
2018-03-17T11:48:21.643Z,55.80
2018-03-17T11:50:49.924Z,55.60
2018-03-17T11:53:18.185Z,55.50
2018-03-17T11:55:46.489Z,55.70
2018-03-17T11:58:14.751Z,55.50
2018-03-17T12:00:43.025Z,56.20
2018-03-17T12:03:11.341Z,55.10
2018-03-17T12:05:40.389Z,55.10
2018-03-17T12:08:08.676Z,55.20
2018-03-17T12:10:36.959Z,55.40
2018-03-17T12:13:05.277Z,55.40
2018-03-17T12:15:33.572Z,55.20
2018-03-17T12:18:01.879Z,55.10
2018-03-17T12:20:30.174Z,55.20
2018-03-17T12:22:58.459Z,55.00
2018-03-17T12:25:26.709Z,55.30
2018-03-17T12:27:55.012Z,55.10
2018-03-17T12:30:24.219Z,56.10
2018-03-17T12:32:53.358Z,54.70
2018-03-17T12:35:21.664Z,54.80
2018-03-17T12:37:49.965Z,55.10
2018-03-17T12:40:21.617Z,55.10
2018-03-17T12:42:47.286Z,55.10
2018-03-17T12:45:15.540Z,54.90
2018-03-17T12:47:43.784Z,54.90
2018-03-17T12:50:12.896Z,54.70
2018-03-17T12:52:41.910Z,54.30
2018-03-17T12:55:10.209Z,54.30
2018-03-17T12:57:38.465Z,54.60
2018-03-17T13:00:06.785Z,54.50
2018-03-17T13:02:35.014Z,54.40
2018-03-17T13:05:03.254Z,54.40
2018-03-17T13:07:32.370Z,54.70
2018-03-17T13:10:01.431Z,54.30
2018-03-17T13:12:29.714Z,54.30
2018-03-17T13:14:57.996Z,54.30
2018-03-17T13:17:26.301Z,54.20
2018-03-17T13:19:54.600Z,54.40
2018-03-17T13:22:22.920Z,54.30
2018-03-17T13:24:51.160Z,54.00
2018-03-17T13:27:31.344Z,54.30
2018-03-17T13:29:59.615Z,54.00
2018-03-17T13:32:39.664Z,53.80
2018-03-17T13:35:07.980Z,53.30
2018-03-17T13:37:37.896Z,53.90
2018-03-17T13:40:18.953Z,54.30
2018-03-17T13:42:47.243Z,54.20
2018-03-17T13:45:16.288Z,53.80
2018-03-17T13:47:44.537Z,53.80
2018-03-17T13:50:12.829Z,53.30
2018-03-17T13:52:41.108Z,53.40
2018-03-17T13:55:09.509Z,53.20
2018-03-17T13:57:38.562Z,53.60
2018-03-17T14:00:06.867Z,53.60
2018-03-17T14:02:35.291Z,53.50
2018-03-17T14:05:03.641Z,53.50
2018-03-17T14:07:31.909Z,53.20
2018-03-17T14:10:00.152Z,53.20
2018-03-17T14:12:28.476Z,53.20
2018-03-17T14:14:56.750Z,53.10
2018-03-17T14:17:25.778Z,53.40
2018-03-17T14:19:54.832Z,53.20
2018-03-17T14:22:23.130Z,53.10
2018-03-17T14:24:51.403Z,53.30
2018-03-17T14:27:19.662Z,53.40
2018-03-17T14:29:47.978Z,53.50
2018-03-17T14:32:16.993Z,53.40
2018-03-17T14:34:45.315Z,53.40
2018-03-17T14:37:13.604Z,53.50
2018-03-17T14:39:42.819Z,53.40
2018-03-17T14:42:11.077Z,53.40
2018-03-17T14:44:39.376Z,53.20
2018-03-17T14:47:07.626Z,53.20
2018-03-17T14:49:35.866Z,53.40
2018-03-17T14:52:04.182Z,53.50
2018-03-17T14:54:32.417Z,53.30
2018-03-17T14:57:00.724Z,53.30
2018-03-17T14:59:28.986Z,53.80
2018-03-17T15:01:57.234Z,53.00
2018-03-17T15:04:25.513Z,52.80
2018-03-17T15:06:53.764Z,52.80
2018-03-17T15:09:22.852Z,52.90
2018-03-17T15:11:51.094Z,52.90
2018-03-17T15:14:19.718Z,52.50
2018-03-17T15:16:48.087Z,52.90
2018-03-17T15:19:16.336Z,53.30
2018-03-17T15:21:44.617Z,53.40
2018-03-17T15:24:12.880Z,53.40
2018-03-17T15:26:41.104Z,53.30
2018-03-17T15:29:10.168Z,53.10
2018-03-17T15:31:38.454Z,53.00
2018-03-17T15:34:06.771Z,53.30
2018-03-17T15:36:35.008Z,53.30
2018-03-17T15:39:03.330Z,53.20
2018-03-17T15:41:31.593Z,53.20
2018-03-17T15:44:00.678Z,53.30
2018-03-17T15:46:29.742Z,53.40
2018-03-17T15:48:58.001Z,53.40
2018-03-17T15:51:26.593Z,53.40
2018-03-17T15:53:54.888Z,53.40
2018-03-17T15:56:23.232Z,53.30
2018-03-17T15:58:51.501Z,53.40
2018-03-17T16:01:19.841Z,53.50
2018-03-17T16:03:48.132Z,53.60
2018-03-17T16:06:17.185Z,53.60
2018-03-17T16:08:45.449Z,53.60
2018-03-17T16:11:13.741Z,53.50
2018-03-17T16:13:42.931Z,53.70
2018-03-17T16:16:11.222Z,54.30
2018-03-17T16:18:39.529Z,53.60
2018-03-17T16:21:07.808Z,53.80
2018-03-17T16:23:36.854Z,53.80
2018-03-17T16:26:05.146Z,53.80
2018-03-17T16:28:33.421Z,54.00
2018-03-17T16:31:01.745Z,53.90
2018-03-17T16:33:30.014Z,53.70
2018-03-17T16:35:59.086Z,53.40
2018-03-17T16:38:27.383Z,53.40
2018-03-17T16:40:55.647Z,53.60
2018-03-17T16:43:24.735Z,53.50
2018-03-17T16:45:53.023Z,53.50
2018-03-17T16:48:22.105Z,53.50
2018-03-17T16:50:50.373Z,53.50
2018-03-17T16:53:18.644Z,53.50
2018-03-17T16:55:46.930Z,53.40
2018-03-17T16:58:15.220Z,53.40
2018-03-17T17:00:44.247Z,53.40
2018-03-17T17:03:12.636Z,53.40
2018-03-17T17:05:41.623Z,53.50
2018-03-17T17:08:09.872Z,53.50
2018-03-17T17:10:38.933Z,53.50
2018-03-17T17:13:07.239Z,53.50
2018-03-17T17:15:36.398Z,53.60
2018-03-17T17:18:05.411Z,53.50
2018-03-17T17:20:33.735Z,53.50
2018-03-17T17:23:02.090Z,53.50
2018-03-17T17:25:30.550Z,53.40
2018-03-17T17:27:58.863Z,53.10
2018-03-17T17:30:27.126Z,53.20
2018-03-17T17:32:56.182Z,53.50
2018-03-17T17:35:24.480Z,53.40
2018-03-17T17:37:52.806Z,53.50
2018-03-17T17:40:21.069Z,53.50
2018-03-17T17:42:50.108Z,53.40
2018-03-17T17:45:18.375Z,53.30
2018-03-17T17:47:46.616Z,53.30
2018-03-17T17:50:14.925Z,53.40
2018-03-17T17:52:43.189Z,53.40
2018-03-17T17:55:11.477Z,53.30
2018-03-17T17:57:39.765Z,53.30
2018-03-17T18:00:08.070Z,53.30
2018-03-17T18:02:36.388Z,53.30
2018-03-17T18:05:04.687Z,53.10
2018-03-17T18:07:32.980Z,53.00
2018-03-17T18:10:01.268Z,53.10
2018-03-17T18:12:29.553Z,53.20
2018-03-17T18:14:57.894Z,53.10
2018-03-17T18:17:26.186Z,53.20
2018-03-17T18:19:54.450Z,53.10
2018-03-17T18:22:22.759Z,53.20
2018-03-17T18:24:51.059Z,53.10
2018-03-17T18:27:20.123Z,53.40
2018-03-17T18:29:48.442Z,53.30
2018-03-17T18:32:16.738Z,53.30
2018-03-17T18:34:45.033Z,53.20
2018-03-17T18:37:13.303Z,53.20
2018-03-17T18:39:41.606Z,53.20
2018-03-17T18:42:09.897Z,53.60
2018-03-17T18:44:38.162Z,53.00
2018-03-17T18:47:06.470Z,53.10
2018-03-17T18:49:35.523Z,52.80
2018-03-17T18:52:03.848Z,52.80
2018-03-17T18:54:32.925Z,53.30
2018-03-17T18:57:01.981Z,52.60
2018-03-17T18:59:30.273Z,52.60
2018-03-17T19:01:58.554Z,52.70
2018-03-17T19:04:26.895Z,52.80
2018-03-17T19:06:55.212Z,52.80
2018-03-17T19:09:23.505Z,52.80
2018-03-17T19:11:51.822Z,52.70
2018-03-17T19:14:20.118Z,52.60
2018-03-17T19:16:48.455Z,52.70
2018-03-17T19:19:17.521Z,52.60
2018-03-17T19:21:47.390Z,52.70
2018-03-17T19:24:15.701Z,52.60
2018-03-17T19:26:43.956Z,52.40
2018-03-17T19:29:12.393Z,52.60
2018-03-17T19:31:40.708Z,52.40
2018-03-17T19:34:08.976Z,52.30
2018-03-17T19:36:37.288Z,52.40
2018-03-17T19:39:05.551Z,52.30
2018-03-17T19:41:33.876Z,52.30
2018-03-17T19:44:02.913Z,52.40
2018-03-17T19:46:31.209Z,52.40
2018-03-17T19:48:59.524Z,52.60
2018-03-17T19:51:28.553Z,52.50
2018-03-17T19:53:56.873Z,52.50
2018-03-17T19:56:25.150Z,52.40
2018-03-17T19:58:53.406Z,52.40
2018-03-17T20:01:21.680Z,52.50
2018-03-17T20:03:49.955Z,52.40
2018-03-17T20:06:18.211Z,52.30
2018-03-17T20:08:46.513Z,52.40
2018-03-17T20:11:14.865Z,52.50
2018-03-17T20:13:43.278Z,52.50
2018-03-17T20:16:11.596Z,52.50
2018-03-17T20:18:40.664Z,52.30
2018-03-17T20:21:08.930Z,52.30
2018-03-17T20:23:37.235Z,52.30
2018-03-17T20:26:06.324Z,52.40
2018-03-17T20:28:34.660Z,52.40
2018-03-17T20:31:02.978Z,52.10
2018-03-17T20:33:31.290Z,52.10
2018-03-17T20:35:59.576Z,52.10
2018-03-17T20:38:27.901Z,52.70
2018-03-17T20:40:56.139Z,52.10
2018-03-17T20:43:24.487Z,51.90
2018-03-17T20:45:53.503Z,51.90
2018-03-17T20:48:21.826Z,51.90
2018-03-17T20:50:50.139Z,52.10
2018-03-17T20:53:19.163Z,52.20
2018-03-17T20:55:47.489Z,52.20
2018-03-17T20:58:15.773Z,52.00
2018-03-17T21:00:44.837Z,51.70
2018-03-17T21:03:13.114Z,51.70
2018-03-17T21:05:41.457Z,52.00
2018-03-17T21:08:09.720Z,51.90
2018-03-17T21:10:38.026Z,52.00
2018-03-17T21:13:07.266Z,52.00
2018-03-17T21:15:35.534Z,52.00
2018-03-17T21:18:03.806Z,52.00
2018-03-17T21:20:32.097Z,52.10
2018-03-17T21:23:00.391Z,52.00
2018-03-17T21:25:29.419Z,51.90
2018-03-17T21:27:57.713Z,51.90
2018-03-17T21:30:26.171Z,51.90
2018-03-17T21:32:54.508Z,52.00
2018-03-17T21:35:22.821Z,52.00
2018-03-17T21:37:51.199Z,52.10
2018-03-17T21:40:19.511Z,52.50
2018-03-17T21:42:47.817Z,52.60
2018-03-17T21:45:16.110Z,52.50
2018-03-17T21:47:45.171Z,52.50
2018-03-17T21:50:13.451Z,52.40
2018-03-17T21:52:41.707Z,52.40
2018-03-17T21:55:10.059Z,52.70
2018-03-17T21:57:38.366Z,52.60
2018-03-17T22:00:06.637Z,52.50
2018-03-17T22:02:34.932Z,52.40
2018-03-17T22:05:03.205Z,52.40
2018-03-17T22:07:31.490Z,52.60
2018-03-17T22:09:59.746Z,52.60
2018-03-17T22:12:28.097Z,53.40
2018-03-17T22:14:56.373Z,52.90
2018-03-17T22:17:24.620Z,53.00
2018-03-17T22:19:52.920Z,53.30
2018-03-17T22:22:21.217Z,52.90
2018-03-17T22:24:49.520Z,52.90
2018-03-17T22:27:17.798Z,52.90
2018-03-17T22:29:46.066Z,53.00
2018-03-17T22:32:14.351Z,53.00
2018-03-17T22:34:42.640Z,52.90
2018-03-17T22:37:11.706Z,52.70
2018-03-17T22:39:39.967Z,52.70
2018-03-17T22:42:08.254Z,52.70
2018-03-17T22:44:36.547Z,52.70
2018-03-17T22:47:04.869Z,52.70
2018-03-17T22:49:33.961Z,52.70
2018-03-17T22:52:02.989Z,52.60
2018-03-17T22:54:31.239Z,52.60
2018-03-17T22:56:59.513Z,52.60
2018-03-17T22:59:27.842Z,52.60
2018-03-17T23:01:56.088Z,52.60
2018-03-17T23:04:24.351Z,52.70
2018-03-17T23:06:52.651Z,52.40
2018-03-17T23:09:20.949Z,52.40
2018-03-17T23:11:49.210Z,52.50
2018-03-17T23:14:17.471Z,52.30
2018-03-17T23:16:45.764Z,52.50
2018-03-17T23:19:14.005Z,52.40
2018-03-17T23:21:42.325Z,52.40
2018-03-17T23:24:10.597Z,52.40
2018-03-17T23:26:38.857Z,52.40
2018-03-17T23:29:07.138Z,52.50
2018-03-17T23:31:35.390Z,52.40
2018-03-17T23:34:03.694Z,52.50
2018-03-17T23:36:31.985Z,52.40
2018-03-17T23:39:00.252Z,52.50
2018-03-17T23:41:28.541Z,52.70
2018-03-17T23:43:56.859Z,53.00
2018-03-17T23:46:25.915Z,52.70
2018-03-17T23:48:54.213Z,52.70
2018-03-17T23:51:22.494Z,53.00
2018-03-17T23:53:50.884Z,52.60
2018-03-17T23:56:19.980Z,52.50
2018-03-17T23:58:48.392Z,52.50
